Time;durP1;ratioP1;P1;durP2;ratioP2;P2;SDS_P1;SDS_P2;PMS_P1;PMS_P2;Temp;Humidity;BMP_temperature;BMP_pressure;BME280_temperature;BME280_humidity;BME280_pressure;Samples;Min_cycle;Max_cycle;Signal;HPM_P1;HPM_P2
2023/05/21 00:01:06;;;;;;;16.38;3.30;;;;;;;;;;4970850;28;20062;-44
2023/05/21 00:03:34;;;;;;;12.05;3.20;;;;;;;;;;4953474;28;20047;-41
2023/05/21 00:06:02;;;;;;;23.55;3.95;;;;;;;;;;4970987;28;20038;-42
2023/05/21 00:08:29;;;;;;;10.35;3.10;;;;;;;;;;4970798;28;20481;-42
2023/05/21 00:10:56;;;;;;;17.38;3.13;;;;;;;;;;4970713;28;20038;-41
2023/05/21 00:13:23;;;;;;;14.27;2.65;;;;;;;;;;4970787;28;20034;-41
2023/05/21 00:15:50;;;;;;;14.68;2.63;;;;;;;;;;4970735;28;20102;-42
2023/05/21 00:18:18;;;;;;;15.88;2.88;;;;;;;;;;4970777;28;20493;-41
2023/05/21 00:20:44;;;;;;;10.15;2.90;;;;;;;;;;4971874;28;20031;-41
2023/05/21 00:23:12;;;;;;;15.10;2.75;;;;;;;;;;4972010;28;20089;-42
2023/05/21 00:25:39;;;;;;;15.30;3.22;;;;;;;;;;4974853;28;20035;-43
2023/05/21 00:28:06;;;;;;;15.20;2.90;;;;;;;;;;4975338;28;20033;-41
2023/05/21 00:30:33;;;;;;;13.20;2.60;;;;;;;;;;4975612;28;20030;-41
2023/05/21 00:33:01;;;;;;;13.38;2.92;;;;;;;;;;4975163;28;20030;-41
2023/05/21 00:35:28;;;;;;;14.77;2.42;;;;;;;;;;4974716;28;20055;-42
2023/05/21 00:37:56;;;;;;;11.45;2.63;;;;;;;;;;4975049;28;20056;-41
2023/05/21 00:40:23;;;;;;;11.32;2.20;;;;;;;;;;4974034;28;20041;-45
2023/05/21 00:42:50;;;;;;;12.63;2.20;;;;;;;;;;4975089;28;20389;-43
2023/05/21 00:45:17;;;;;;;11.02;2.33;;;;;;;;;;4974084;28;20054;-42
2023/05/21 00:47:47;;;;;;;9.40;2.55;;;;;;;;;;4975259;28;20129;-41
2023/05/21 00:50:14;;;;;;;7.43;2.10;;;;;;;;;;4974669;28;20489;-42
2023/05/21 00:52:44;;;;;;;12.13;2.35;;;;;;;;;;4974451;28;20047;-42
2023/05/21 00:55:11;;;;;;;9.90;2.30;;;;;;;;;;4974604;28;20035;-41
2023/05/21 00:57:39;;;;;;;12.00;2.63;;;;;;;;;;4975144;28;20097;-42
2023/05/21 01:00:07;;;;;;;14.23;2.50;;;;;;;;;;4973964;28;20101;-43
2023/05/21 01:02:38;;;;;;;11.73;2.15;;;;;;;;;;4973528;28;20476;-42
2023/05/21 01:05:05;;;;;;;8.88;2.20;;;;;;;;;;4974005;28;20591;-43
2023/05/21 01:07:38;;;;;;;8.85;2.60;;;;;;;;;;4972850;28;20042;-43
2023/05/21 01:10:06;;;;;;;12.77;2.75;;;;;;;;;;4973636;28;20121;-42
2023/05/21 01:12:34;;;;;;;13.77;2.28;;;;;;;;;;4973692;28;20110;-43
2023/05/21 01:15:04;;;;;;;7.63;2.30;;;;;;;;;;4974116;28;20040;-41
2023/05/21 01:17:32;;;;;;;10.55;2.60;;;;;;;;;;4973541;28;20026;-44
2023/05/21 01:20:00;;;;;;;10.10;1.75;;;;;;;;;;4973037;28;20089;-44
2023/05/21 01:22:31;;;;;;;8.65;2.20;;;;;;;;;;4971737;28;20034;-44
2023/05/21 01:25:01;;;;;;;10.38;1.98;;;;;;;;;;4973265;28;20496;-43
2023/05/21 01:27:28;;;;;;;9.93;2.20;;;;;;;;;;4973466;28;20401;-42
2023/05/21 01:29:56;;;;;;;7.68;1.67;;;;;;;;;;4971277;28;20480;-43
2023/05/21 01:32:31;;;;;;;6.28;2.05;;;;;;;;;;4973331;28;20084;-43
2023/05/21 01:35:01;;;;;;;33.53;3.03;;;;;;;;;;4972945;28;20182;-44
2023/05/21 01:37:37;;;;;;;10.88;1.92;;;;;;;;;;4973148;28;20027;-44
2023/05/21 01:40:07;;;;;;;7.13;1.80;;;;;;;;;;4971499;28;20074;-42
2023/05/21 01:42:37;;;;;;;5.85;1.88;;;;;;;;;;4973209;28;20090;-43
2023/05/21 01:45:06;;;;;;;5.45;1.95;;;;;;;;;;4971378;28;20066;-43
2023/05/21 01:47:35;;;;;;;12.70;2.33;;;;;;;;;;4970455;28;20305;-46
2023/05/21 01:50:03;;;;;;;9.85;1.80;;;;;;;;;;4971626;28;20039;-44
2023/05/21 01:52:31;;;;;;;8.73;1.83;;;;;;;;;;4971841;28;20058;-43
2023/05/21 01:54:59;;;;;;;9.35;1.80;;;;;;;;;;4971344;28;20054;-43
2023/05/21 01:57:26;;;;;;;7.43;2.28;;;;;;;;;;4970731;28;20148;-43
2023/05/21 01:59:53;;;;;;;13.10;2.03;;;;;;;;;;4970683;28;20019;-44
2023/05/21 02:02:21;;;;;;;5.15;1.70;;;;;;;;;;4970777;28;20468;-45
2023/05/21 02:04:49;;;;;;;8.25;1.92;;;;;;;;;;4970526;28;20049;-47
2023/05/21 02:07:17;;;;;;;8.98;2.00;;;;;;;;;;4970760;28;20476;-45
2023/05/21 02:09:44;;;;;;;7.07;1.65;;;;;;;;;;4969898;28;20034;-42
2023/05/21 02:12:11;;;;;;;5.50;1.65;;;;;;;;;;4971481;28;20037;-44
2023/05/21 02:14:39;;;;;;;4.72;1.75;;;;;;;;;;4971904;28;20035;-46
2023/05/21 02:17:06;;;;;;;9.02;1.90;;;;;;;;;;4971651;28;20031;-43
2023/05/21 02:19:34;;;;;;;6.00;1.85;;;;;;;;;;4971631;28;20042;-43
2023/05/21 02:22:01;;;;;;;4.35;1.60;;;;;;;;;;4971583;28;20038;-44
2023/05/21 02:24:30;;;;;;;2.95;1.50;;;;;;;;;;4969422;28;20161;-47
2023/05/21 02:26:57;;;;;;;4.18;1.60;;;;;;;;;;4970586;28;20067;-45
2023/05/21 02:29:25;;;;;;;8.25;1.45;;;;;;;;;;4971965;28;20027;-44
2023/05/21 02:31:52;;;;;;;8.95;1.80;;;;;;;;;;4971763;28;20046;-42
2023/05/21 02:34:20;;;;;;;3.90;1.60;;;;;;;;;;4971924;28;20027;-42
2023/05/21 02:36:47;;;;;;;5.72;1.60;;;;;;;;;;4969349;28;20038;-42
2023/05/21 02:39:15;;;;;;;5.95;1.70;;;;;;;;;;4971758;28;20033;-43
2023/05/21 02:41:42;;;;;;;9.10;1.63;;;;;;;;;;4971537;28;20551;-43
2023/05/21 02:44:10;;;;;;;4.68;1.58;;;;;;;;;;4971416;28;20042;-44
2023/05/21 02:46:37;;;;;;;2.85;1.35;;;;;;;;;;4970750;28;20133;-42
2023/05/21 02:49:05;;;;;;;4.78;1.50;;;;;;;;;;4971574;28;20018;-43
2023/05/21 02:51:34;;;;;;;3.00;1.25;;;;;;;;;;4971534;28;20092;-45
2023/05/21 02:54:01;;;;;;;6.57;1.50;;;;;;;;;;4971603;28;20114;-43
2023/05/21 02:56:29;;;;;;;9.10;1.52;;;;;;;;;;4969142;28;20389;-44
2023/05/21 02:58:56;;;;;;;3.85;1.25;;;;;;;;;;4971306;28;20034;-43
2023/05/21 03:01:23;;;;;;;3.92;1.10;;;;;;;;;;4971286;28;20038;-44
2023/05/21 03:03:51;;;;;;;5.95;1.33;;;;;;;;;;4969922;28;20133;-43
2023/05/21 03:06:19;;;;;;;3.75;1.50;;;;;;;;;;4969663;28;20031;-43
2023/05/21 03:08:46;;;;;;;2.92;1.33;;;;;;;;;;4971360;28;20039;-43
2023/05/21 03:11:14;;;;;;;4.20;1.20;;;;;;;;;;4971291;28;20042;-43
2023/05/21 03:13:41;;;;;;;4.43;1.17;;;;;;;;;;4971571;28;20424;-42
2023/05/21 03:16:09;;;;;;;4.00;1.20;;;;;;;;;;4972499;28;20105;-46
2023/05/21 03:18:36;;;;;;;3.67;1.20;;;;;;;;;;4972117;28;20022;-41
2023/05/21 03:21:03;;;;;;;2.70;1.00;;;;;;;;;;4972838;28;20054;-42
2023/05/21 03:23:30;;;;;;;4.60;1.38;;;;;;;;;;4972881;28;20057;-42
2023/05/21 03:25:57;;;;;;;4.25;1.20;;;;;;;;;;4972739;28;20062;-41
2023/05/21 03:28:24;;;;;;;8.20;1.13;;;;;;;;;;4972932;28;20033;-42
2023/05/21 03:30:52;;;;;;;5.03;1.50;;;;;;;;;;4971288;28;20038;-42
2023/05/21 03:33:19;;;;;;;2.40;1.10;;;;;;;;;;4972893;28;20046;-43
2023/05/21 03:35:46;;;;;;;3.45;0.93;;;;;;;;;;4972855;28;20026;-44
2023/05/21 03:38:13;;;;;;;3.13;0.90;;;;;;;;;;4972757;28;20433;-41
2023/05/21 03:40:40;;;;;;;4.03;1.10;;;;;;;;;;4972492;28;20038;-42
2023/05/21 03:43:07;;;;;;;3.13;1.08;;;;;;;;;;4972295;28;20454;-43
2023/05/21 03:45:34;;;;;;;3.53;1.35;;;;;;;;;;4972863;28;20027;-41
2023/05/21 03:48:01;;;;;;;3.47;1.08;;;;;;;;;;4972547;28;20516;-42
2023/05/21 03:50:28;;;;;;;2.90;1.00;;;;;;;;;;4972414;28;20042;-43
2023/05/21 03:52:55;;;;;;;3.17;1.10;;;;;;;;;;4972760;28;20023;-42
2023/05/21 03:55:22;;;;;;;1.67;0.95;;;;;;;;;;4972729;28;20034;-42
2023/05/21 03:57:49;;;;;;;2.78;0.73;;;;;;;;;;4971650;28;20042;-42
2023/05/21 04:00:16;;;;;;;2.15;0.88;;;;;;;;;;4976439;28;20474;-42
2023/05/21 04:02:43;;;;;;;2.58;1.08;;;;;;;;;;4976490;28;20527;-42
2023/05/21 04:05:10;;;;;;;5.03;1.30;;;;;;;;;;4976406;28;20135;-41
2023/05/21 04:07:37;;;;;;;1.77;0.90;;;;;;;;;;4976561;28;20027;-43
2023/05/21 04:10:05;;;;;;;3.28;0.90;;;;;;;;;;4976122;28;20075;-43
2023/05/21 04:12:32;;;;;;;2.20;1.10;;;;;;;;;;4976301;28;20031;-41
2023/05/21 04:15:01;;;;;;;1.77;0.80;;;;;;;;;;4976352;28;20062;-42
2023/05/21 04:17:28;;;;;;;4.47;1.00;;;;;;;;;;4975909;28;20485;-42
2023/05/21 04:19:55;;;;;;;3.30;0.98;;;;;;;;;;4976201;28;20109;-43
2023/05/21 04:22:25;;;;;;;3.67;1.00;;;;;;;;;;4976077;28;20031;-42
2023/05/21 04:24:53;;;;;;;3.38;0.98;;;;;;;;;;4975954;28;20038;-41
2023/05/21 04:27:23;;;;;;;4.95;1.15;;;;;;;;;;4976172;28;20821;-42
2023/05/21 04:29:50;;;;;;;5.32;1.00;;;;;;;;;;4975922;28;20493;-42
2023/05/21 04:32:17;;;;;;;6.97;1.20;;;;;;;;;;4975926;28;20031;-42
2023/05/21 04:34:44;;;;;;;3.30;1.00;;;;;;;;;;4975949;28;20499;-41
2023/05/21 04:37:11;;;;;;;2.38;0.80;;;;;;;;;;4975953;28;20031;-42
2023/05/21 04:39:39;;;;;;;2.13;0.70;;;;;;;;;;4975895;28;20102;-42
2023/05/21 04:42:09;;;;;;;2.92;0.88;;;;;;;;;;4975594;28;20042;-42
2023/05/21 04:44:37;;;;;;;1.88;0.85;;;;;;;;;;4975369;28;20445;-42
2023/05/21 04:47:04;;;;;;;2.67;0.90;;;;;;;;;;4975506;28;20054;-43
2023/05/21 04:49:33;;;;;;;2.25;0.68;;;;;;;;;;4975739;28;20493;-41
2023/05/21 04:52:01;;;;;;;3.80;0.88;;;;;;;;;;4975385;28;20038;-42
2023/05/21 04:54:28;;;;;;;2.92;0.90;;;;;;;;;;4975389;28;20035;-42
2023/05/21 04:56:56;;;;;;;2.92;1.00;;;;;;;;;;4975593;28;20031;-41
2023/05/21 04:59:23;;;;;;;3.33;0.98;;;;;;;;;;4975360;28;20043;-42
2023/05/21 05:01:51;;;;;;;2.22;0.90;;;;;;;;;;4975384;28;20054;-42
2023/05/21 05:04:18;;;;;;;3.30;0.95;;;;;;;;;;4975321;28;20038;-43
2023/05/21 05:06:46;;;;;;;1.45;0.70;;;;;;;;;;4975375;28;20033;-44
2023/05/21 05:09:13;;;;;;;3.05;0.80;;;;;;;;;;4974728;28;20058;-42
2023/05/21 05:11:40;;;;;;;1.70;0.77;;;;;;;;;;4974648;28;20041;-43
2023/05/21 05:14:07;;;;;;;2.17;0.80;;;;;;;;;;4975298;28;20547;-42
2023/05/21 05:16:35;;;;;;;2.28;0.93;;;;;;;;;;4975267;28;20038;-43
2023/05/21 05:19:02;;;;;;;2.13;0.90;;;;;;;;;;4974876;28;20043;-43
2023/05/21 05:21:29;;;;;;;2.35;0.70;;;;;;;;;;4975023;28;20051;-43
2023/05/21 05:23:56;;;;;;;1.13;0.73;;;;;;;;;;4974938;28;20054;-42
2023/05/21 05:26:24;;;;;;;2.70;0.70;;;;;;;;;;4975137;28;20038;-42
2023/05/21 05:28:51;;;;;;;1.75;0.80;;;;;;;;;;4974842;28;20053;-42
2023/05/21 05:31:18;;;;;;;3.20;0.85;;;;;;;;;;4974865;28;20055;-42
2023/05/21 05:33:45;;;;;;;2.08;0.73;;;;;;;;;;4974974;28;20077;-42
2023/05/21 05:36:12;;;;;;;2.72;0.80;;;;;;;;;;4974736;28;20035;-42
2023/05/21 05:38:39;;;;;;;2.00;0.50;;;;;;;;;;4973497;28;20492;-42
2023/05/21 05:41:05;;;;;;;2.35;0.88;;;;;;;;;;4974737;28;20031;-41
2023/05/21 05:43:32;;;;;;;1.98;0.80;;;;;;;;;;4974772;28;20047;-42
2023/05/21 05:46:00;;;;;;;2.00;0.70;;;;;;;;;;4974580;28;21111;-43
2023/05/21 05:48:27;;;;;;;2.63;0.80;;;;;;;;;;4974476;28;20082;-45
2023/05/21 05:50:54;;;;;;;2.45;0.82;;;;;;;;;;4974545;28;20039;-42
2023/05/21 05:53:21;;;;;;;4.32;0.85;;;;;;;;;;4974663;28;20053;-42
2023/05/21 05:55:48;;;;;;;2.08;0.90;;;;;;;;;;4974635;28;20027;-43
2023/05/21 05:58:15;;;;;;;1.35;0.77;;;;;;;;;;4974480;28;20042;-43
2023/05/21 06:00:42;;;;;;;1.80;0.80;;;;;;;;;;4973654;28;20027;-46
2023/05/21 06:03:10;;;;;;;2.72;0.88;;;;;;;;;;4973381;28;20034;-43
2023/05/21 06:05:37;;;;;;;1.80;0.68;;;;;;;;;;4974649;28;20734;-43
2023/05/21 06:08:05;;;;;;;1.90;0.60;;;;;;;;;;4974327;28;20039;-42
2023/05/21 06:10:32;;;;;;;1.45;0.65;;;;;;;;;;4974230;28;20101;-42
2023/05/21 06:12:59;;;;;;;2.97;0.90;;;;;;;;;;4974167;28;20031;-43
2023/05/21 06:15:26;;;;;;;1.95;0.75;;;;;;;;;;4973007;28;20042;-42
2023/05/21 06:17:53;;;;;;;3.75;0.90;;;;;;;;;;4974068;28;20039;-43
2023/05/21 06:20:19;;;;;;;0.98;0.63;;;;;;;;;;4974276;28;20066;-43
2023/05/21 06:22:46;;;;;;;1.92;1.00;;;;;;;;;;4973758;28;20117;-42
2023/05/21 06:25:15;;;;;;;4.43;0.75;;;;;;;;;;4973857;28;20042;-45
2023/05/21 06:27:41;;;;;;;3.25;0.80;;;;;;;;;;4974205;28;20118;-42
2023/05/21 06:30:09;;;;;;;1.50;0.77;;;;;;;;;;4973873;28;20031;-43
2023/05/21 06:32:36;;;;;;;1.80;0.80;;;;;;;;;;4973795;28;20034;-42
2023/05/21 06:35:03;;;;;;;1.85;0.70;;;;;;;;;;4973858;28;20027;-43
2023/05/21 06:37:30;;;;;;;3.90;0.70;;;;;;;;;;4973732;28;20035;-42
2023/05/21 06:39:57;;;;;;;1.65;0.65;;;;;;;;;;4973687;28;20031;-42
2023/05/21 06:42:24;;;;;;;1.48;0.57;;;;;;;;;;4973719;28;20396;-43
2023/05/21 06:44:51;;;;;;;1.70;0.80;;;;;;;;;;4973607;28;20046;-43
2023/05/21 06:47:18;;;;;;;2.10;0.93;;;;;;;;;;4973419;28;20105;-42
2023/05/21 06:49:45;;;;;;;3.45;0.77;;;;;;;;;;4973452;28;20035;-43
2023/05/21 06:52:12;;;;;;;1.35;0.60;;;;;;;;;;4973541;28;20081;-42
2023/05/21 06:54:39;;;;;;;1.88;0.60;;;;;;;;;;4973463;28;20045;-43
2023/05/21 06:57:06;;;;;;;1.42;0.63;;;;;;;;;;4973387;28;20039;-42
2023/05/21 06:59:33;;;;;;;1.50;0.82;;;;;;;;;;4973386;28;20030;-43
2023/05/21 07:02:00;;;;;;;2.20;0.85;;;;;;;;;;4973301;28;20027;-47
2023/05/21 07:04:27;;;;;;;2.53;0.80;;;;;;;;;;4973230;28;20031;-42
2023/05/21 07:06:54;;;;;;;2.72;0.73;;;;;;;;;;4973353;28;20034;-43
2023/05/21 07:09:21;;;;;;;1.45;0.77;;;;;;;;;;4973304;28;20034;-42
2023/05/21 07:11:48;;;;;;;1.80;0.80;;;;;;;;;;4972996;28;20023;-42
2023/05/21 07:14:15;;;;;;;2.13;0.70;;;;;;;;;;4973119;28;20031;-43
2023/05/21 07:16:42;;;;;;;1.45;0.65;;;;;;;;;;4973096;28;20026;-42
2023/05/21 07:19:09;;;;;;;2.60;0.70;;;;;;;;;;4973134;28;20038;-42
2023/05/21 07:21:36;;;;;;;1.92;0.90;;;;;;;;;;4973013;28;20042;-42
2023/05/21 07:24:03;;;;;;;3.05;0.57;;;;;;;;;;4973049;28;20078;-42
2023/05/21 07:26:30;;;;;;;1.85;0.70;;;;;;;;;;4972922;28;20560;-43
2023/05/21 07:28:57;;;;;;;1.80;0.60;;;;;;;;;;4972986;28;20042;-42
2023/05/21 07:31:24;;;;;;;4.80;0.88;;;;;;;;;;4972918;28;20034;-42
2023/05/21 07:33:51;;;;;;;2.35;0.80;;;;;;;;;;4972586;28;20477;-43
2023/05/21 07:36:18;;;;;;;1.25;0.60;;;;;;;;;;4973039;28;20043;-42
2023/05/21 07:38:45;;;;;;;2.25;0.80;;;;;;;;;;4972803;28;20500;-42
2023/05/21 07:41:11;;;;;;;2.47;0.80;;;;;;;;;;4972791;28;20035;-42
2023/05/21 07:46:36;;;;;;;1.98;0.82;;;;;;;;;;4968934;28;20290;-37
2023/05/21 07:49:03;;;;;;;2.88;0.77;;;;;;;;;;4973530;28;20031;-37
2023/05/21 07:51:31;;;;;;;2.63;0.82;;;;;;;;;;4972833;28;20058;-37
2023/05/21 07:53:58;;;;;;;3.38;0.63;;;;;;;;;;4972715;28;20027;-36
2023/05/21 07:56:25;;;;;;;3.75;0.90;;;;;;;;;;4955371;28;20023;-38
2023/05/21 07:58:52;;;;;;;4.03;0.90;;;;;;;;;;4955399;28;20039;-38
2023/05/21 08:01:19;;;;;;;1.20;0.50;;;;;;;;;;4972752;28;20131;-36
2023/05/21 08:03:46;;;;;;;3.05;0.70;;;;;;;;;;4972573;28;20538;-37
2023/05/21 08:06:13;;;;;;;2.58;0.70;;;;;;;;;;4972347;28;20038;-38
2023/05/21 08:08:40;;;;;;;1.08;0.70;;;;;;;;;;4972607;28;20027;-37
2023/05/21 08:11:07;;;;;;;1.75;0.70;;;;;;;;;;4972643;28;20081;-38
2023/05/21 08:13:34;;;;;;;3.25;0.77;;;;;;;;;;4972426;28;20043;-37
2023/05/21 08:16:01;;;;;;;2.65;0.90;;;;;;;;;;4972485;28;20114;-38
2023/05/21 08:18:28;;;;;;;1.02;0.60;;;;;;;;;;4972457;28;20043;-37
2023/05/21 08:20:55;;;;;;;2.08;0.73;;;;;;;;;;4972371;28;20031;-38
2023/05/21 08:23:22;;;;;;;1.90;0.70;;;;;;;;;;4972430;28;20061;-38
2023/05/21 08:25:49;;;;;;;2.03;0.80;;;;;;;;;;4972452;28;20166;-38
2023/05/21 08:28:16;;;;;;;2.00;0.77;;;;;;;;;;4972528;28;20022;-37
2023/05/21 08:30:43;;;;;;;1.45;0.50;;;;;;;;;;4972338;28;20038;-38
2023/05/21 08:33:10;;;;;;;2.13;0.60;;;;;;;;;;4972477;28;20031;-38
2023/05/21 08:35:37;;;;;;;1.92;0.70;;;;;;;;;;4972205;28;20077;-38
2023/05/21 08:38:04;;;;;;;2.35;0.68;;;;;;;;;;4972469;28;20023;-39
2023/05/21 08:40:31;;;;;;;1.40;0.65;;;;;;;;;;4972153;28;20029;-37
2023/05/21 08:42:58;;;;;;;2.38;1.02;;;;;;;;;;4972264;28;20031;-38
2023/05/21 08:45:25;;;;;;;1.60;0.82;;;;;;;;;;4973246;28;20101;-38
2023/05/21 08:47:56;;;;;;;1.15;0.60;;;;;;;;;;4975890;28;20023;-38
2023/05/21 08:50:24;;;;;;;2.03;0.80;;;;;;;;;;4975778;28;20384;-37
2023/05/21 08:52:54;;;;;;;1.45;0.70;;;;;;;;;;4975686;28;20019;-38
2023/05/21 08:55:22;;;;;;;2.33;0.80;;;;;;;;;;4975574;28;20081;-37
2023/05/21 08:57:49;;;;;;;4.15;0.68;;;;;;;;;;4975542;28;20043;-38
2023/05/21 09:00:16;;;;;;;3.45;0.70;;;;;;;;;;4975715;28;20031;-38
2023/05/21 09:02:45;;;;;;;2.65;0.60;;;;;;;;;;4975572;28;20027;-37
2023/05/21 09:05:12;;;;;;;2.50;0.80;;;;;;;;;;4975250;28;20046;-38
2023/05/21 09:07:46;;;;;;;2.20;0.80;;;;;;;;;;4975467;28;20034;-37
2023/05/21 09:10:13;;;;;;;2.13;0.90;;;;;;;;;;4975443;28;20477;-37
2023/05/21 09:12:40;;;;;;;1.88;0.60;;;;;;;;;;4975403;28;20052;-39
2023/05/21 09:15:08;;;;;;;1.50;0.70;;;;;;;;;;4957907;28;20034;-38
2023/05/21 09:17:35;;;;;;;1.67;0.60;;;;;;;;;;4975355;28;20440;-38
2023/05/21 09:20:15;;;;;;;2.72;0.80;;;;;;;;;;4975184;28;20085;-38
2023/05/21 09:22:43;;;;;;;2.35;0.80;;;;;;;;;;4975081;28;20122;-37
2023/05/21 09:25:17;;;;;;;1.80;0.77;;;;;;;;;;4975000;28;20031;-37
2023/05/21 09:27:44;;;;;;;3.53;0.80;;;;;;;;;;4975297;28;20062;-37
2023/05/21 09:30:12;;;;;;;3.88;1.05;;;;;;;;;;4974943;28;20023;-38
2023/05/21 09:32:40;;;;;;;2.13;0.80;;;;;;;;;;4974961;28;20069;-37
2023/05/21 09:35:14;;;;;;;2.47;0.80;;;;;;;;;;4974864;28;20031;-38
2023/05/21 09:37:44;;;;;;;3.28;1.13;;;;;;;;;;4974897;28;20061;-37
2023/05/21 09:40:12;;;;;;;3.58;0.80;;;;;;;;;;4974934;28;20077;-38
2023/05/21 09:42:45;;;;;;;2.53;1.10;;;;;;;;;;4974912;28;20043;-37
2023/05/21 09:45:12;;;;;;;2.05;0.88;;;;;;;;;;4974533;28;20051;-38
2023/05/21 09:47:42;;;;;;;1.90;0.95;;;;;;;;;;4974778;28;20114;-37
2023/05/21 09:50:13;;;;;;;3.05;0.90;;;;;;;;;;4974744;28;20062;-37
2023/05/21 09:52:40;;;;;;;2.20;0.90;;;;;;;;;;4974650;28;20053;-37
2023/05/21 09:55:11;;;;;;;1.63;0.80;;;;;;;;;;4974556;28;20097;-37
2023/05/21 09:57:42;;;;;;;2.17;0.80;;;;;;;;;;4974169;28;20034;-38
2023/05/21 10:00:11;;;;;;;1.88;0.80;;;;;;;;;;4974566;28;20033;-38
2023/05/21 10:02:40;;;;;;;3.28;0.82;;;;;;;;;;4974354;28;20312;-38
2023/05/21 10:05:08;;;;;;;2.75;0.90;;;;;;;;;;4956856;28;20496;-38
2023/05/21 10:07:36;;;;;;;2.25;0.90;;;;;;;;;;4974148;28;20034;-38
2023/05/21 10:10:04;;;;;;;2.20;0.90;;;;;;;;;;4974424;28;20023;-38
2023/05/21 10:12:33;;;;;;;3.97;0.90;;;;;;;;;;4974299;28;20027;-37
2023/05/21 10:15:01;;;;;;;1.70;0.80;;;;;;;;;;4974178;28;20476;-38
2023/05/21 10:17:29;;;;;;;1.92;0.80;;;;;;;;;;4974252;28;20547;-38
2023/05/21 10:19:57;;;;;;;1.50;0.70;;;;;;;;;;4974047;28;20045;-38
2023/05/21 10:22:27;;;;;;;3.60;1.00;;;;;;;;;;4974012;28;20170;-38
2023/05/21 10:24:54;;;;;;;2.05;0.82;;;;;;;;;;4973938;28;20531;-37
2023/05/21 10:27:22;;;;;;;1.83;0.82;;;;;;;;;;4974148;28;20031;-38
2023/05/21 10:29:49;;;;;;;3.60;1.00;;;;;;;;;;4973932;28;20034;-38
2023/05/21 10:32:16;;;;;;;1.92;0.93;;;;;;;;;;4973990;28;20031;-39
2023/05/21 10:34:44;;;;;;;3.38;1.10;;;;;;;;;;4973877;28;20030;-38
2023/05/21 10:37:12;;;;;;;2.53;0.75;;;;;;;;;;4973628;28;20058;-37
2023/05/21 10:39:39;;;;;;;2.25;1.10;;;;;;;;;;4973872;28;20122;-38
2023/05/21 10:42:26;;;;;;;2.58;0.95;;;;;;;;;;4973493;28;20058;-37
2023/05/21 10:45:02;;;;;;;3.15;1.00;;;;;;;;;;4973344;28;20536;-38
2023/05/21 10:47:38;;;;;;;2.78;1.10;;;;;;;;;;4973492;28;20031;-37
2023/05/21 10:50:16;;;;;;;2.80;1.20;;;;;;;;;;4973653;28;20361;-37
2023/05/21 10:52:56;;;;;;;2.60;1.10;;;;;;;;;;4973664;28;20693;-38
2023/05/21 10:55:22;;;;;;;2.78;0.90;;;;;;;;;;4973389;28;20061;-38
2023/05/21 10:57:52;;;;;;;2.20;1.10;;;;;;;;;;4973489;28;20046;-37
2023/05/21 11:00:20;;;;;;;1.40;0.80;;;;;;;;;;4973506;28;20488;-38
2023/05/21 11:02:48;;;;;;;4.22;1.05;;;;;;;;;;4973400;28;20027;-37
2023/05/21 11:05:15;;;;;;;2.88;1.00;;;;;;;;;;4973188;28;20027;-39
2023/05/21 11:07:55;;;;;;;2.83;1.13;;;;;;;;;;4972718;28;20089;-37
2023/05/21 11:10:43;;;;;;;5.45;1.33;;;;;;;;;;4973357;28;20038;-38
2023/05/21 11:13:18;;;;;;;3.08;1.17;;;;;;;;;;4973146;28;20059;-37
2023/05/21 11:15:57;;;;;;;3.17;0.90;;;;;;;;;;4973286;28;20404;-37
2023/05/21 11:18:44;;;;;;;3.40;1.33;;;;;;;;;;4973178;28;20058;-38
2023/05/21 11:21:15;;;;;;;3.88;1.17;;;;;;;;;;4962873;28;20101;-37
2023/05/21 11:23:45;;;;;;;2.90;1.35;;;;;;;;;;4972944;28;20034;-38
2023/05/21 11:26:12;;;;;;;2.63;1.27;;;;;;;;;;4973022;28;20057;-37
2023/05/21 11:28:39;;;;;;;2.97;1.13;;;;;;;;;;4973042;28;20027;-38
2023/05/21 11:31:25;;;;;;;3.33;1.30;;;;;;;;;;4973117;28;20097;-37
2023/05/21 11:34:10;;;;;;;2.92;1.10;;;;;;;;;;4972857;28;20081;-38
2023/05/21 11:36:38;;;;;;;2.15;1.10;;;;;;;;;;4972924;28;20495;-37
2023/05/21 11:39:21;;;;;;;3.17;1.40;;;;;;;;;;4973042;28;20046;-37
2023/05/21 11:41:57;;;;;;;4.07;1.27;;;;;;;;;;4972975;28;20035;-37
2023/05/21 11:44:41;;;;;;;2.53;1.10;;;;;;;;;;4972279;28;20133;-37
2023/05/21 11:47:09;;;;;;;2.65;1.25;;;;;;;;;;4972905;28;20039;-37
2023/05/21 11:49:37;;;;;;;2.85;1.23;;;;;;;;;;4972744;28;20045;-37
2023/05/21 11:52:05;;;;;;;2.97;1.33;;;;;;;;;;4955486;28;20393;-38
2023/05/21 11:54:35;;;;;;;2.53;1.40;;;;;;;;;;4972746;28;20030;-38
2023/05/21 11:57:02;;;;;;;4.30;1.58;;;;;;;;;;4972747;28;20120;-37
2023/05/21 11:59:29;;;;;;;2.80;1.40;;;;;;;;;;4972861;28;20041;-38
2023/05/21 12:01:58;;;;;;;2.25;1.20;;;;;;;;;;4972849;28;20058;-37
2023/05/21 12:04:29;;;;;;;3.38;1.52;;;;;;;;;;4972509;28;20057;-37
2023/05/21 12:06:57;;;;;;;7.25;1.65;;;;;;;;;;4972016;28;20034;-38
2023/05/21 12:09:24;;;;;;;1.98;1.10;;;;;;;;;;4972600;28;20073;-38
2023/05/21 12:11:51;;;;;;;3.22;1.30;;;;;;;;;;4972614;28;20488;-38
2023/05/21 12:14:18;;;;;;;3.33;1.60;;;;;;;;;;4972632;28;20097;-37
2023/05/21 12:16:45;;;;;;;3.72;1.50;;;;;;;;;;4972665;28;20023;-38
2023/05/21 12:19:12;;;;;;;4.47;1.50;;;;;;;;;;4972983;28;20049;-37
2023/05/21 12:21:39;;;;;;;4.95;1.48;;;;;;;;;;4975818;28;20046;-37
2023/05/21 12:24:06;;;;;;;3.53;1.60;;;;;;;;;;4975483;28;20035;-37
2023/05/21 12:26:34;;;;;;;4.28;1.40;;;;;;;;;;4975741;28;20473;-38
2023/05/21 12:29:02;;;;;;;2.83;1.38;;;;;;;;;;4975626;28;20070;-37
2023/05/21 12:31:31;;;;;;;2.63;1.70;;;;;;;;;;4974969;28;20037;-37
2023/05/21 12:34:00;;;;;;;4.20;1.40;;;;;;;;;;4975257;28;20118;-38
2023/05/21 12:36:28;;;;;;;2.60;1.30;;;;;;;;;;4975415;28;20038;-37
2023/05/21 12:38:55;;;;;;;3.83;1.38;;;;;;;;;;4975423;28;20026;-41
2023/05/21 12:41:22;;;;;;;3.13;1.50;;;;;;;;;;4975251;28;20432;-37
2023/05/21 12:43:50;;;;;;;2.88;1.33;;;;;;;;;;4975044;28;20051;-37
2023/05/21 12:46:17;;;;;;;2.90;1.30;;;;;;;;;;4970924;28;20055;-38
2023/05/21 12:48:57;;;;;;;3.72;1.30;;;;;;;;;;4974922;28;20039;-37
2023/05/21 12:51:24;;;;;;;3.20;1.30;;;;;;;;;;4975423;28;20042;-37
2023/05/21 12:53:51;;;;;;;2.90;1.52;;;;;;;;;;4975185;28;20026;-39
2023/05/21 12:56:18;;;;;;;5.32;1.38;;;;;;;;;;4957905;28;20037;-36
2023/05/21 12:58:49;;;;;;;2.55;1.65;;;;;;;;;;4975408;28;20046;-37
2023/05/21 13:01:17;;;;;;;3.07;1.57;;;;;;;;;;4975200;28;20022;-37
2023/05/21 13:03:44;;;;;;;3.10;1.63;;;;;;;;;;4974858;28;20397;-36
2023/05/21 13:06:13;;;;;;;3.00;1.20;;;;;;;;;;4975387;28;20034;-38
2023/05/21 13:08:40;;;;;;;6.25;1.70;;;;;;;;;;4975227;28;20034;-37
2023/05/21 13:11:07;;;;;;;5.28;1.50;;;;;;;;;;4956459;28;20121;-37
2023/05/21 13:13:34;;;;;;;3.92;1.60;;;;;;;;;;4974946;28;20022;-37
2023/05/21 13:16:01;;;;;;;3.67;1.85;;;;;;;;;;4974727;28;20606;-37
2023/05/21 13:18:28;;;;;;;3.47;1.58;;;;;;;;;;4974467;28;20109;-38
2023/05/21 13:20:55;;;;;;;2.80;1.30;;;;;;;;;;4974857;28;20384;-37
2023/05/21 13:23:22;;;;;;;3.03;1.50;;;;;;;;;;4974531;28;20484;-37
2023/05/21 13:25:49;;;;;;;3.65;1.50;;;;;;;;;;4974317;28;20043;-37
2023/05/21 13:28:16;;;;;;;4.68;1.35;;;;;;;;;;4974853;28;20026;-38
2023/05/21 13:30:43;;;;;;;2.50;1.40;;;;;;;;;;4974091;28;20046;-38
2023/05/21 13:33:10;;;;;;;2.53;1.35;;;;;;;;;;4973706;28;20392;-37
2023/05/21 13:35:37;;;;;;;3.72;1.60;;;;;;;;;;4973540;28;20042;-37
2023/05/21 13:38:05;;;;;;;8.32;1.30;;;;;;;;;;4974041;28;20038;-37
2023/05/21 13:40:32;;;;;;;5.07;1.73;;;;;;;;;;4973771;28;20038;-38
2023/05/21 13:42:59;;;;;;;3.47;1.60;;;;;;;;;;4974323;28;20030;-37
2023/05/21 13:45:27;;;;;;;2.30;1.30;;;;;;;;;;4956389;28;20051;-39
2023/05/21 13:47:55;;;;;;;2.63;1.40;;;;;;;;;;4974272;28;20035;-38
2023/05/21 13:50:22;;;;;;;4.45;1.30;;;;;;;;;;4974433;28;20037;-40
2023/05/21 13:52:49;;;;;;;3.13;1.70;;;;;;;;;;4974315;28;20027;-38
2023/05/21 13:55:16;;;;;;;2.92;1.70;;;;;;;;;;4974289;28;20045;-38
2023/05/21 13:57:43;;;;;;;4.72;1.40;;;;;;;;;;4973986;28;20043;-37
2023/05/21 14:00:13;;;;;;;3.97;1.30;;;;;;;;;;4973574;28;20031;-38
2023/05/21 14:02:41;;;;;;;1.90;1.17;;;;;;;;;;4973654;28;20073;-38
2023/05/21 14:05:08;;;;;;;4.82;1.50;;;;;;;;;;4972991;28;20039;-38
2023/05/21 14:07:36;;;;;;;2.10;1.10;;;;;;;;;;4972145;28;20066;-38
2023/05/21 14:10:03;;;;;;;1.50;1.05;;;;;;;;;;4972952;28;20049;-37
2023/05/21 14:12:30;;;;;;;5.88;1.40;;;;;;;;;;4972258;28;20030;-36
2023/05/21 14:14:57;;;;;;;4.05;1.40;;;;;;;;;;4973426;28;20065;-37
2023/05/21 14:17:24;;;;;;;7.72;1.60;;;;;;;;;;4973535;28;20026;-38
2023/05/21 14:19:51;;;;;;;7.55;1.70;;;;;;;;;;4973621;28;20034;-38
2023/05/21 14:22:18;;;;;;;3.30;1.30;;;;;;;;;;4972839;28;20045;-36
2023/05/21 14:24:45;;;;;;;4.85;1.40;;;;;;;;;;4956264;28;20401;-37
2023/05/21 14:27:12;;;;;;;8.88;1.67;;;;;;;;;;4974037;28;20085;-38
2023/05/21 14:29:39;;;;;;;4.82;1.63;;;;;;;;;;4973230;28;20034;-38
2023/05/21 14:32:06;;;;;;;7.72;1.90;;;;;;;;;;4972985;28;20062;-37
2023/05/21 14:34:34;;;;;;;10.40;2.13;;;;;;;;;;4956099;28;20493;-36
2023/05/21 14:37:01;;;;;;;7.47;1.55;;;;;;;;;;4973405;28;20034;-37
2023/05/21 14:39:28;;;;;;;8.82;1.80;;;;;;;;;;4973828;28;20097;-37
2023/05/21 14:41:55;;;;;;;12.48;1.90;;;;;;;;;;4973272;28;20404;-37
2023/05/21 14:44:22;;;;;;;15.45;1.77;;;;;;;;;;4971685;28;20093;-37
2023/05/21 14:46:50;;;;;;;18.23;2.20;;;;;;;;;;4965150;28;20051;-40
2023/05/21 14:49:17;;;;;;;9.73;1.88;;;;;;;;;;4971870;28;20089;-38